»·PEaware :: ASA611 KLAS-KSAN

ASA611 :: KLAS-KSAN

FLIGHT INFORMATION

Flight Status: Arrived
Operator:
Alaska Airlines
More flights by this operator :: More flights under this callsign
Pilot: Pratham R. (19019)
Aircraft: BOEING 737-700
(B737)
More flights by this aircraft type
Origin: KLAS McCarran Intl
United States
Destination: KSAN San Diego Intl-Lindbergh
United States
More flights between these airports :: More routes between these airports
Route: +BOACH8 LVELL LUCKI1
File this flight plan on PilotEdge
Remarks: RMK / SIMBRIEF
Altitude:
(Current/Filed)
38,000ft
Speed:
(Current/Filed)
450kts
Departed: 24-Aug-20 07:54 PM
Arrived: 24-Aug-20 08:39 PM
Distance/Time
Traveled:
225nm/0:44
Distance/Time
To Go:
Arrived

Flight Plot

Page will automatically refresh every two minutes.

Flight plan parsing failed; only flown route is shown


Map Options




Map Legend


Flown Route
Filed Route
Departure Airport
Arrival Airport
Navaid (VOR, NDB)
Fix

Horizontal Profiles

Position Reports

Time Latitude Longitude Heading Altitude Ground
Speed
24-Aug-20 19:40 36.080861 -115.144276 66 2086ft 0kts
24-Aug-20 19:41 36.080861 -115.144276 66 2086ft 0kts
24-Aug-20 19:42 36.080861 -115.144276 66 2086ft 0kts
24-Aug-20 19:43 36.080857 -115.144786 117 2088ft 2kts
24-Aug-20 19:44 36.081129 -115.145087 156 2089ft 0kts
24-Aug-20 19:45 36.081129 -115.145087 156 2089ft 0kts
24-Aug-20 19:46 36.081129 -115.145087 156 2089ft 0kts
24-Aug-20 19:47 36.081112 -115.145078 156 2089ft 1kts
24-Aug-20 19:48 36.079383 -115.144838 183 2091ft 7kts
24-Aug-20 19:49 36.078252 -115.141291 90 2083ft 26kts
24-Aug-20 19:50 36.078272 -115.130396 89 2050ft 36kts
24-Aug-20 19:51 36.078091 -115.122405 123 2036ft 9kts
24-Aug-20 19:52 36.076444 -115.121943 268 2038ft 11kts
24-Aug-20 19:53 36.076386 -115.154804 269 2672ft 164kts
24-Aug-20 19:54 36.071199 -115.217803 249 4322ft 223kts
24-Aug-20 19:55 36.020976 -115.278827 204 6400ft 284kts
24-Aug-20 19:56 35.944665 -115.305292 186 8512ft 287kts
24-Aug-20 19:57 35.863249 -115.313981 183 10996ft 323kts
24-Aug-20 19:58 35.770729 -115.305237 175 14026ft 341kts
24-Aug-20 19:59 35.674832 -115.294999 180 17148ft 354kts
24-Aug-20 20:00 35.574854 -115.298786 182 18824ft 362kts
24-Aug-20 20:01 35.473599 -115.302785 182 20041ft 368kts
24-Aug-20 20:02 35.369823 -115.306891 182 22737ft 381kts
24-Aug-20 20:03 35.260611 -115.311200 182 22852ft 404kts
24-Aug-20 20:04 35.145882 -115.315710 182 25110ft 414kts
24-Aug-20 20:05 35.031258 -115.320206 182 27256ft 426kts
24-Aug-20 20:06 34.910199 -115.324938 182 27740ft 434kts
24-Aug-20 20:07 34.789908 -115.332833 191 27747ft 436kts
24-Aug-20 20:08 34.674197 -115.377605 199 27766ft 435kts
24-Aug-20 20:09 34.560832 -115.427315 199 27879ft 435kts
24-Aug-20 20:10 34.446696 -115.477089 199 27908ft 435kts
24-Aug-20 20:11 34.333375 -115.527181 204 27908ft 435kts
24-Aug-20 20:12 34.228824 -115.601158 210 27907ft 436kts
24-Aug-20 20:13 34.117499 -115.659043 200 27907ft 435kts
24-Aug-20 20:14 34.004805 -115.712473 201 27818ft 435kts
24-Aug-20 20:15 33.891650 -115.765338 201 27673ft 434kts
24-Aug-20 20:16 33.781006 -115.819972 201 27666ft 413kts
24-Aug-20 20:17 33.673806 -115.870365 200 27671ft 417kts
24-Aug-20 20:18 33.567078 -115.920823 204 26704ft 409kts
24-Aug-20 20:19 33.481425 -116.005462 229 25677ft 410kts
24-Aug-20 20:20 33.416319 -116.114720 233 23851ft 399kts
24-Aug-20 20:21 33.352720 -116.220786 226 21416ft 386kts
24-Aug-20 20:22 33.267386 -116.291150 205 19215ft 368kts
24-Aug-20 20:23 33.177250 -116.343982 205 17200ft 351kts
24-Aug-20 20:24 33.091489 -116.394118 205 15266ft 337kts
24-Aug-20 20:25 33.009145 -116.443437 211 13433ft 321kts
24-Aug-20 20:26 32.941195 -116.509151 218 11626ft 311kts
24-Aug-20 20:27 32.877762 -116.573201 219 10360ft 283kts
24-Aug-20 20:28 32.820281 -116.631031 219 9289ft 264kts
24-Aug-20 20:29 32.768505 -116.690971 235 7969ft 258kts
24-Aug-20 20:30 32.733310 -116.763627 239 6659ft 241kts
24-Aug-20 20:31 32.703418 -116.830224 247 5790ft 218kts
24-Aug-20 20:32 32.682590 -116.898670 250 4696ft 220kts
24-Aug-20 20:33 32.679447 -116.965507 282 3703ft 195kts
24-Aug-20 20:34 32.692888 -117.022400 284 2849ft 161kts
24-Aug-20 20:35 32.704932 -117.072068 283 2121ft 147kts
24-Aug-20 20:36 32.715802 -117.118484 285 1230ft 143kts
24-Aug-20 20:37 32.725957 -117.158613 286 585ft 136kts
24-Aug-20 20:38 32.734886 -117.195054 285 21ft 33kts
24-Aug-20 20:39 32.734882 -117.199258 273 17ft 5kts
24-Aug-20 20:40 32.735266 -117.202254 214 17ft 6kts
24-Aug-20 20:41 32.734145 -117.203064 268 17ft 2kts
24-Aug-20 20:42 32.734144 -117.203346 270 17ft 0kts
24-Aug-20 20:43 32.734144 -117.203348 270 17ft 0kts
24-Aug-20 20:44 32.734144 -117.203348 270 17ft 0kts
24-Aug-20 20:45 32.734144 -117.203348 270 17ft 0kts
24-Aug-20 20:46 32.734144 -117.203348 270 17ft 0kts
24-Aug-20 20:47 32.734144 -117.203348 270 17ft 0kts
24-Aug-20 20:48 32.734144 -117.203348 270 17ft 0kts
24-Aug-20 20:49 32.734144 -117.203348 270 17ft 0kts
24-Aug-20 20:50 32.734144 -117.203348 270 17ft 0kts
24-Aug-20 20:51 32.734144 -117.203348 270 17ft 0kts
24-Aug-20 20:52 32.734144 -117.203348 270 17ft 0kts

Navigation Log

Ident Type
Flight plan parsing failed, navigation log unavailable